Time;durP1;ratioP1;P1;durP2;ratioP2;P2;SDS_P1;SDS_P2;PMS_P1;PMS_P2;Temp;Humidity;BMP_temperature;BMP_pressure;BME280_temperature;BME280_humidity;BME280_pressure;Samples;Min_cycle;Max_cycle;Signal;HPM_P1;HPM_P2
2023/09/11 00:02:06;;;;;;;5.95;3.50;;;;;;;24.37;70.40;101424.66;5057895;27;96776;-27
2023/09/11 00:04:32;;;;;;;8.05;4.18;;;;;;;24.35;70.52;101421.19;5056904;27;97819;-26
2023/09/11 00:06:57;;;;;;;8.70;3.70;;;;;;;24.37;70.63;101424.66;5057084;27;97347;-27
2023/09/11 00:09:23;;;;;;;8.20;3.65;;;;;;;24.33;70.69;101412.19;5056870;27;96751;-27
2023/09/11 00:11:48;;;;;;;7.00;3.55;;;;;;;24.30;70.79;101401.47;5057246;27;96838;-27
2023/09/11 00:14:13;;;;;;;6.05;4.03;;;;;;;24.30;70.95;101420.84;5057294;27;97785;-27
2023/09/11 00:16:39;;;;;;;9.88;3.92;;;;;;;24.25;71.33;101420.50;5057227;27;97056;-27
2023/09/11 00:19:04;;;;;;;8.63;4.00;;;;;;;24.23;71.38;101417.03;5056895;27;96791;-27
2023/09/11 00:21:29;;;;;;;6.65;3.78;;;;;;;24.16;71.25;101418.72;5056931;27;96827;-28
2023/09/11 00:23:55;;;;;;;6.63;3.95;;;;;;;24.14;71.11;101402.28;5056793;27;97895;-27
2023/09/11 00:26:20;;;;;;;6.35;3.67;;;;;;;24.10;71.54;101413.91;5057122;27;97282;-27
2023/09/11 00:28:45;;;;;;;10.32;4.97;;;;;;;24.09;71.55;101417.69;5057165;27;96818;-27
2023/09/11 00:31:11;;;;;;;6.25;3.85;;;;;;;24.03;71.70;101408.16;5057009;27;96821;-27
2023/09/11 00:33:36;;;;;;;8.20;3.83;;;;;;;24.01;71.87;101401.94;5056286;27;97221;-26
2023/09/11 00:36:01;;;;;;;10.60;3.95;;;;;;;23.99;71.54;101401.22;5056926;27;97313;-27
2023/09/11 00:38:27;;;;;;;8.65;4.00;;;;;;;24.00;71.75;101404.84;5056786;27;96749;-26
2023/09/11 00:40:53;;;;;;;9.90;4.00;;;;;;;23.96;71.98;101401.56;5056532;27;96908;-27
2023/09/11 00:43:18;;;;;;;8.20;3.97;;;;;;;23.93;71.90;101402.78;5037420;27;101711;-27
2023/09/11 00:45:44;;;;;;;6.60;4.07;;;;;;;23.93;72.31;101400.00;5056427;27;97878;-28
2023/09/11 00:48:11;;;;;;;6.80;4.00;;;;;;;23.85;72.08;101399.09;5056729;27;96653;-27
2023/09/11 00:50:36;;;;;;;5.65;3.72;;;;;;;23.84;72.13;101391.84;5055930;27;96762;-27
2023/09/11 00:53:04;;;;;;;8.50;3.55;;;;;;;23.84;72.52;101397.38;5056315;27;97914;-28
2023/09/11 00:55:29;;;;;;;8.75;4.05;;;;;;;23.82;72.53;101402.22;5037947;27;101208;-27
2023/09/11 00:57:55;;;;;;;5.68;3.75;;;;;;;23.76;72.62;101391.81;5055739;27;96850;-27
2023/09/11 01:00:20;;;;;;;6.85;3.75;;;;;;;23.76;72.96;101400.09;5056550;27;96763;-27
2023/09/11 01:02:47;;;;;;;7.97;3.97;;;;;;;23.71;72.77;101395.91;5056163;27;97966;-27
2023/09/11 01:05:13;;;;;;;7.40;3.83;;;;;;;23.66;73.36;101389.16;5037612;27;100756;-27
2023/09/11 01:07:38;;;;;;;5.53;3.70;;;;;;;23.62;73.53;101390.50;5056436;27;96579;-27
2023/09/11 01:10:05;;;;;;;5.32;3.88;;;;;;;23.57;73.12;101388.25;5056558;27;96822;-27
2023/09/11 01:12:33;;;;;;;7.95;3.85;;;;;;;23.56;73.26;101386.53;5037270;27;99201;-28
2023/09/11 01:14:58;;;;;;;6.75;4.03;;;;;;;23.57;73.50;101384.63;5037995;27;101445;-28
2023/09/11 01:17:53;;;;;;;11.30;4.22;;;;;;;23.57;73.46;101382.72;5056269;27;96674;-27
2023/09/11 01:20:42;;;;;;;7.45;3.55;;;;;;;23.47;74.27;101380.06;5037727;27;97432;-27
2023/09/11 01:23:49;;;;;;;6.38;3.92;;;;;;;23.49;73.76;101386.31;5037091;27;101021;-27
2023/09/11 01:26:47;;;;;;;6.22;4.18;;;;;;;23.47;73.90;101384.75;5036937;27;101181;-28
2023/09/11 01:29:19;;;;;;;5.47;3.75;;;;;;;23.46;73.45;101385.78;5055967;27;96513;-28
2023/09/11 01:31:46;;;;;;;14.27;4.63;;;;;;;23.45;73.03;101378.50;5037777;27;96794;-27
2023/09/11 01:34:12;;;;;;;7.57;4.40;;;;;;;23.42;73.20;101384.38;5037263;27;101085;-27
2023/09/11 01:36:38;;;;;;;7.07;4.32;;;;;;;23.43;73.06;101373.16;5055592;27;97477;-27
2023/09/11 01:39:04;;;;;;;6.50;4.38;;;;;;;23.43;73.47;101377.81;5055925;27;96493;-27
2023/09/11 01:41:37;;;;;;;7.10;4.22;;;;;;;23.43;73.65;101375.03;5055828;27;96884;-27
2023/09/11 01:44:09;;;;;;;9.45;4.43;;;;;;;23.40;73.90;101367.09;5036951;27;101144;-27
2023/09/11 01:46:35;;;;;;;6.97;4.75;;;;;;;23.34;73.89;101360.34;5055428;27;97214;-28
2023/09/11 01:49:02;;;;;;;7.15;4.57;;;;;;;23.30;73.92;101358.91;5036798;27;96628;-27
2023/09/11 01:51:30;;;;;;;8.88;4.38;;;;;;;23.26;74.26;101363.94;5037213;27;96877;-27
2023/09/11 01:53:57;;;;;;;10.43;4.10;;;;;;;23.18;74.16;101352.81;5036831;27;101496;-29
2023/09/11 01:56:23;;;;;;;10.73;4.32;;;;;;;23.19;74.42;101362.84;5036851;27;100738;-29
2023/09/11 01:58:48;;;;;;;9.57;4.40;;;;;;;23.15;74.67;101353.16;5055595;27;96533;-27
2023/09/11 02:01:13;;;;;;;7.53;4.07;;;;;;;23.10;74.82;101350.88;5055594;27;96828;-28
2023/09/11 02:03:40;;;;;;;7.82;4.20;;;;;;;23.11;75.08;101348.97;5054903;27;99279;-27
2023/09/11 02:06:06;;;;;;;6.50;4.28;;;;;;;23.09;75.01;101351.88;5037032;27;99972;-27
2023/09/11 02:08:32;;;;;;;9.98;4.80;;;;;;;23.02;75.65;101337.00;5037130;27;96583;-27
2023/09/11 02:10:57;;;;;;;9.80;4.97;;;;;;;22.96;75.34;101328.47;5055165;27;96860;-27
2023/09/11 02:13:22;;;;;;;7.03;4.28;;;;;;;22.97;75.48;101336.59;5054413;27;99276;-27
2023/09/11 02:15:48;;;;;;;7.72;4.43;;;;;;;22.95;75.71;101332.25;5055139;27;97706;-27
2023/09/11 02:18:13;;;;;;;10.13;4.97;;;;;;;22.94;75.72;101336.94;5055209;27;96608;-28
2023/09/11 02:20:39;;;;;;;8.45;4.07;;;;;;;22.88;75.93;101337.56;5055565;27;96773;-27
2023/09/11 02:23:04;;;;;;;10.57;5.05;;;;;;;22.84;76.09;101333.41;5054835;27;99701;-27
2023/09/11 02:25:29;;;;;;;8.02;4.97;;;;;;;22.86;76.25;101337.75;5054421;27;97949;-27
2023/09/11 02:27:55;;;;;;;8.18;4.28;;;;;;;22.83;76.29;101334.44;5055025;27;96766;-27
2023/09/11 02:30:20;;;;;;;7.13;4.75;;;;;;;22.77;77.17;101330.44;5055367;27;96883;-28
2023/09/11 02:32:45;;;;;;;7.40;4.22;;;;;;;22.74;76.81;101333.53;5054578;27;99322;-27
2023/09/11 02:35:11;;;;;;;7.03;3.97;;;;;;;22.72;76.87;101338.34;5054810;27;97409;-27
2023/09/11 02:37:36;;;;;;;8.35;4.85;;;;;;;22.70;77.21;101332.13;5054564;27;96557;-28
2023/09/11 02:40:02;;;;;;;10.35;4.63;;;;;;;22.66;77.04;101334.31;5054907;27;97710;-27
2023/09/11 02:42:28;;;;;;;7.35;4.50;;;;;;;22.57;77.24;101321.50;5035639;27;101028;-28
2023/09/11 02:44:53;;;;;;;7.20;4.80;;;;;;;22.60;77.28;101325.84;5054800;27;97761;-28
2023/09/11 02:47:19;;;;;;;7.95;4.75;;;;;;;22.59;77.33;101326.84;5054981;27;96522;-27
2023/09/11 02:49:44;;;;;;;9.82;4.88;;;;;;;22.58;77.07;101325.13;5055421;27;96763;-27
2023/09/11 02:52:09;;;;;;;7.38;4.07;;;;;;;22.55;77.64;101331.84;5054825;27;97949;-27
2023/09/11 02:54:35;;;;;;;8.32;4.85;;;;;;;22.53;76.95;101330.28;5055136;27;97227;-27
2023/09/11 02:57:00;;;;;;;7.32;4.13;;;;;;;22.48;77.49;101316.94;5054563;27;96903;-27
2023/09/11 02:59:25;;;;;;;9.57;4.30;;;;;;;22.44;77.22;101318.28;5055019;27;96782;-27
2023/09/11 03:01:50;;;;;;;6.65;4.57;;;;;;;22.45;77.21;101322.75;5054119;27;97494;-27
2023/09/11 03:04:16;;;;;;;7.53;4.28;;;;;;;22.46;77.00;101322.63;5054129;27;98764;-28
2023/09/11 03:06:41;;;;;;;6.70;4.20;;;;;;;22.43;77.15;101314.66;5054718;27;96639;-27
2023/09/11 03:09:06;;;;;;;8.25;4.70;;;;;;;22.44;77.22;101321.91;5054567;27;96751;-28
2023/09/11 03:11:32;;;;;;;7.22;4.50;;;;;;;22.44;76.89;101315.53;5054497;27;98026;-27
2023/09/11 03:13:57;;;;;;;8.23;4.72;;;;;;;22.40;76.79;101314.97;5054923;27;97790;-27
2023/09/11 03:16:23;;;;;;;9.10;4.90;;;;;;;22.41;77.19;101308.44;5058113;27;96479;-27
2023/09/11 03:18:48;;;;;;;10.52;5.22;;;;;;;22.39;76.92;101304.09;5058838;27;96818;-27
2023/09/11 03:21:13;;;;;;;8.60;4.75;;;;;;;22.42;76.67;101307.38;5057840;27;97876;-28
2023/09/11 03:23:39;;;;;;;7.00;4.50;;;;;;;22.43;76.96;101300.00;5057841;27;97815;-27
2023/09/11 03:26:12;;;;;;;7.97;4.78;;;;;;;22.44;77.33;101294.28;5057006;27;96476;-27
2023/09/11 03:28:38;;;;;;;9.68;4.95;;;;;;;22.40;76.43;101295.63;5039490;27;96738;-27
2023/09/11 03:31:03;;;;;;;7.72;4.85;;;;;;;22.42;76.30;101287.22;5057719;27;97789;-27
2023/09/11 03:33:28;;;;;;;13.05;5.05;;;;;;;22.41;76.37;101283.59;5057736;27;97286;-28
2023/09/11 03:35:54;;;;;;;10.75;5.30;;;;;;;22.44;76.42;101285.16;5057693;27;96734;-27
2023/09/11 03:38:20;;;;;;;8.50;5.18;;;;;;;22.41;76.70;101291.88;5057450;27;96849;-27
2023/09/11 03:40:46;;;;;;;8.05;4.93;;;;;;;22.42;76.63;101288.06;5057348;27;98284;-27
2023/09/11 03:43:11;;;;;;;7.90;4.90;;;;;;;22.39;76.18;101282.00;5038752;27;100805;-27
2023/09/11 03:45:37;;;;;;;7.70;4.85;;;;;;;22.41;76.14;101283.59;5057881;27;96667;-28
2023/09/11 03:48:02;;;;;;;11.65;5.05;;;;;;;22.39;76.01;101282.88;5057737;27;96800;-27
2023/09/11 03:50:28;;;;;;;8.70;5.03;;;;;;;22.35;76.35;101286.13;5056633;27;99418;-27
2023/09/11 03:52:54;;;;;;;9.27;5.22;;;;;;;22.36;76.53;101290.63;5057243;27;97264;-27
2023/09/11 03:55:20;;;;;;;9.70;4.82;;;;;;;22.34;76.15;101285.25;5057710;27;97098;-27
2023/09/11 03:57:45;;;;;;;8.63;4.80;;;;;;;22.27;76.86;101270.38;5057641;27;96754;-27
2023/09/11 04:00:12;;;;;;;9.43;4.78;;;;;;;22.32;76.25;101280.94;5057310;27;97886;-27
2023/09/11 04:02:38;;;;;;;8.43;4.78;;;;;;;22.25;76.47;101270.50;5038666;27;100747;-27
2023/09/11 04:05:03;;;;;;;11.57;5.05;;;;;;;22.24;76.16;101271.56;5038909;27;96671;-27
2023/09/11 04:07:29;;;;;;;11.23;4.93;;;;;;;22.24;76.40;101274.31;5057244;27;96837;-27
2023/09/11 04:09:54;;;;;;;6.80;4.70;;;;;;;22.20;75.99;101260.97;5056755;27;99810;-27
2023/09/11 04:12:20;;;;;;;7.30;4.75;;;;;;;22.25;75.60;101269.66;5056753;27;99235;-27
2023/09/11 04:14:45;;;;;;;8.95;4.90;;;;;;;22.23;75.52;101261.53;5056862;27;96702;-27
2023/09/11 04:17:11;;;;;;;10.73;5.28;;;;;;;22.23;75.61;101271.72;5057303;27;96799;-28
2023/09/11 04:19:39;;;;;;;12.25;5.60;;;;;;;22.18;75.68;101257.50;5038444;27;101326;-27
2023/09/11 04:22:06;;;;;;;10.25;5.30;;;;;;;22.24;75.71;101284.50;5056552;27;99050;-28
2023/09/11 04:24:32;;;;;;;7.55;4.32;;;;;;;22.23;75.83;101274.47;5057175;27;96755;-27
2023/09/11 04:26:57;;;;;;;7.53;4.75;;;;;;;22.20;75.78;101266.47;5038437;27;96841;-27
2023/09/11 04:29:24;;;;;;;11.30;5.60;;;;;;;22.20;75.60;101267.38;5056874;27;97672;-27
2023/09/11 04:31:49;;;;;;;6.97;4.55;;;;;;;22.18;75.83;101265.78;5038561;27;100608;-27
2023/09/11 04:34:15;;;;;;;7.80;4.38;;;;;;;22.17;75.92;101272.34;5057118;27;96773;-27
2023/09/11 04:36:41;;;;;;;7.07;4.43;;;;;;;22.10;75.95;101263.81;5038391;27;96970;-27
2023/09/11 04:39:06;;;;;;;9.88;5.35;;;;;;;22.10;76.42;101260.19;5056149;27;98077;-28
2023/09/11 04:41:31;;;;;;;10.93;4.72;;;;;;;22.04;76.42;101261.69;5056479;27;97307;-28
2023/09/11 04:43:57;;;;;;;8.80;4.72;;;;;;;22.08;76.50;101270.53;5056001;27;96566;-27
2023/09/11 04:46:22;;;;;;;8.25;4.78;;;;;;;22.06;76.07;101277.06;5056694;27;96778;-28
2023/09/11 04:48:48;;;;;;;11.07;4.88;;;;;;;22.03;76.36;101265.47;5056251;27;99340;-27
2023/09/11 04:51:13;;;;;;;8.18;5.00;;;;;;;22.05;76.32;101274.47;5056439;27;97364;-27
2023/09/11 04:53:38;;;;;;;10.63;4.63;;;;;;;21.99;76.56;101264.06;5056795;27;96518;-28
2023/09/11 04:56:04;;;;;;;8.20;4.60;;;;;;;22.00;76.79;101268.53;5057017;27;96787;-27
2023/09/11 04:58:30;;;;;;;9.70;5.20;;;;;;;22.01;76.48;101273.91;5055973;27;99251;-27
2023/09/11 05:00:55;;;;;;;9.77;4.72;;;;;;;22.01;76.57;101273.03;5056249;27;97877;-28
2023/09/11 05:03:20;;;;;;;8.38;4.72;;;;;;;21.94;76.61;101266.44;5056078;27;96578;-28
2023/09/11 05:05:48;;;;;;;8.70;4.88;;;;;;;21.96;77.03;101280.94;5056133;27;96721;-28
2023/09/11 05:08:14;;;;;;;8.35;4.63;;;;;;;21.87;76.82;101281.88;5055815;27;98968;-27
2023/09/11 05:10:43;;;;;;;8.32;4.55;;;;;;;21.88;76.66;101283.59;5055992;27;97777;-27
2023/09/11 05:13:12;;;;;;;9.45;4.68;;;;;;;21.84;77.09;101285.81;5056252;27;96608;-27
2023/09/11 05:15:37;;;;;;;11.55;4.78;;;;;;;21.85;77.51;101284.78;5056588;27;96771;-27
2023/09/11 05:18:03;;;;;;;9.18;4.72;;;;;;;21.81;77.34;101291.66;5055945;27;97459;-28
2023/09/11 05:20:28;;;;;;;8.10;4.53;;;;;;;21.80;77.20;101281.63;5056330;27;97459;-27
2023/09/11 05:22:54;;;;;;;8.55;4.57;;;;;;;21.78;76.75;101280.91;5055892;27;96630;-27
2023/09/11 05:25:20;;;;;;;7.38;4.70;;;;;;;21.81;76.88;101287.00;5055883;27;96925;-27
2023/09/11 05:27:46;;;;;;;7.70;4.65;;;;;;;21.79;77.08;101288.19;5036936;27;101762;-27
2023/09/11 05:30:13;;;;;;;7.45;4.53;;;;;;;21.79;77.10;101282.66;5055721;27;97798;-27
2023/09/11 05:32:39;;;;;;;8.52;4.45;;;;;;;21.84;77.17;101294.97;5037442;27;96625;-27
2023/09/11 05:35:06;;;;;;;7.45;4.47;;;;;;;21.78;76.55;101284.53;5055982;27;96796;-27
2023/09/11 05:37:31;;;;;;;9.00;4.43;;;;;;;21.86;77.15;101303.09;5036595;27;101555;-27
2023/09/11 05:39:57;;;;;;;10.98;5.35;;;;;;;21.84;77.01;101296.84;5055732;27;97806;-27
2023/09/11 05:42:22;;;;;;;11.60;4.93;;;;;;;21.82;76.88;101305.28;5054843;27;100533;-27
2023/09/11 05:44:48;;;;;;;9.30;5.18;;;;;;;21.86;77.20;101308.59;5037780;27;96807;-27
2023/09/11 05:47:14;;;;;;;9.82;4.90;;;;;;;21.88;76.99;101312.06;5055568;27;98009;-27
2023/09/11 05:49:39;;;;;;;9.75;5.10;;;;;;;21.85;76.62;101317.88;5036759;27;100908;-28
2023/09/11 05:52:06;;;;;;;7.75;4.55;;;;;;;21.89;77.04;101311.03;5055236;27;96707;-27
2023/09/11 05:54:33;;;;;;;11.85;5.25;;;;;;;21.92;77.56;101324.50;5037242;27;96812;-27
2023/09/11 05:56:59;;;;;;;9.68;5.10;;;;;;;21.93;77.27;101329.03;5055250;27;96782;-28
2023/09/11 05:59:24;;;;;;;12.60;5.25;;;;;;;21.93;76.91;101326.25;5055379;27;97982;-27
2023/09/11 06:01:49;;;;;;;8.93;4.90;;;;;;;21.92;77.44;101338.28;5055780;27;96623;-28
2023/09/11 06:04:15;;;;;;;12.30;5.65;;;;;;;21.93;77.36;101330.88;5055375;27;96750;-27
2023/09/11 06:06:40;;;;;;;12.82;6.93;;;;;;;21.99;77.50;101344.06;5054976;27;99294;-27
2023/09/11 06:09:08;;;;;;;12.50;6.38;;;;;;;21.98;77.12;101336.81;5055475;27;98324;-27
2023/09/11 06:11:34;;;;;;;12.75;6.40;;;;;;;22.02;76.80;101340.97;5055549;27;96627;-27
2023/09/11 06:13:59;;;;;;;16.30;6.50;;;;;;;22.04;77.57;101338.94;5036964;27;96912;-27
2023/09/11 06:16:24;;;;;;;11.20;5.78;;;;;;;22.07;77.52;101344.13;5035184;27;98061;-27
2023/09/11 06:18:50;;;;;;;15.43;7.28;;;;;;;22.08;77.06;101331.22;5054733;27;97863;-27
2023/09/11 06:21:15;;;;;;;13.10;7.35;;;;;;;22.08;77.73;101340.38;5055289;27;96630;-27
2023/09/11 06:23:41;;;;;;;13.48;7.60;;;;;;;22.10;77.68;101337.47;5054750;27;96865;-27
2023/09/11 06:26:06;;;;;;;17.77;7.40;;;;;;;22.05;77.43;101327.75;5054786;27;97802;-27
2023/09/11 06:28:31;;;;;;;16.55;7.43;;;;;;;22.11;77.88;101334.53;5054990;27;97263;-27
2023/09/11 06:30:57;;;;;;;12.88;7.28;;;;;;;22.07;77.91;101324.81;5054156;27;96791;-27
2023/09/11 06:33:22;;;;;;;12.80;6.43;;;;;;;22.09;77.11;101322.78;5055285;27;96894;-27
2023/09/11 06:35:47;;;;;;;14.30;7.55;;;;;;;22.19;77.10;101325.44;5055040;27;97934;-27
2023/09/11 06:38:13;;;;;;;14.40;8.02;;;;;;;22.26;77.60;101321.06;5054665;27;97749;-27
2023/09/11 06:40:38;;;;;;;17.98;8.45;;;;;;;22.26;77.38;101321.06;5054032;27;96592;-28
2023/09/11 06:43:04;;;;;;;14.13;7.70;;;;;;;22.32;77.02;101325.09;5054832;27;96825;-27
2023/09/11 06:45:31;;;;;;;14.20;7.53;;;;;;;22.35;76.87;101324.75;5053639;27;98172;-27
2023/09/11 06:47:58;;;;;;;16.00;8.38;;;;;;;22.47;76.76;101338.13;5054283;27;99259;-28
2023/09/11 06:50:24;;;;;;;16.15;7.93;;;;;;;22.43;76.96;101327.59;5039210;27;96753;-28
2023/09/11 06:52:49;;;;;;;14.07;8.27;;;;;;;22.43;77.04;101339.50;5058475;27;96977;-28
2023/09/11 06:55:15;;;;;;;18.05;8.32;;;;;;;22.46;77.15;101343.84;5039272;27;100845;-27
2023/09/11 06:57:53;;;;;;;17.10;8.93;;;;;;;22.38;77.85;101341.00;5058594;27;97901;-27
2023/09/11 07:00:18;;;;;;;15.77;7.57;;;;;;;22.39;78.08;101343.59;5058345;27;96821;-28
2023/09/11 07:02:47;;;;;;;18.67;9.48;;;;;;;22.36;78.48;101341.19;5058516;27;96774;-27
2023/09/11 07:05:13;;;;;;;13.95;8.30;;;;;;;22.40;78.22;101348.09;5038989;27;101055;-27
2023/09/11 07:07:38;;;;;;;18.83;8.80;;;;;;;22.62;77.28;101349.50;5058105;27;97481;-27
2023/09/11 07:10:04;;;;;;;17.80;8.73;;;;;;;22.75;76.76;101346.28;5057861;27;97891;-27
2023/09/11 07:12:29;;;;;;;16.38;8.65;;;;;;;22.92;77.24;101349.19;5058616;27;96797;-27
2023/09/11 07:14:55;;;;;;;18.00;8.98;;;;;;;23.03;76.83;101352.56;5057103;27;99273;-27
2023/09/11 07:17:21;;;;;;;14.55;8.65;;;;;;;23.01;76.50;101351.00;5056214;27;99239;-28
2023/09/11 07:19:47;;;;;;;15.93;8.80;;;;;;;22.99;76.40;101347.53;5057655;27;96724;-29
2023/09/11 07:22:12;;;;;;;14.35;8.30;;;;;;;22.90;76.14;101352.94;5039274;27;96848;-27
2023/09/11 07:24:38;;;;;;;15.38;7.97;;;;;;;22.89;77.25;101351.22;5057612;27;97401;-27
2023/09/11 07:27:04;;;;;;;13.95;8.13;;;;;;;23.05;76.96;101349.66;5038792;27;100700;-29
2023/09/11 07:29:30;;;;;;;15.35;8.52;;;;;;;23.28;75.68;101347.16;5038700;27;96548;-27
2023/09/11 07:31:55;;;;;;;17.83;8.07;;;;;;;23.60;75.22;101353.88;5058096;27;96848;-27
2023/09/11 07:34:21;;;;;;;15.95;8.85;;;;;;;23.84;74.60;101351.22;5057697;27;97833;-27
2023/09/11 07:36:47;;;;;;;17.90;8.80;;;;;;;24.00;74.13;101352.25;5056838;27;97798;-29
2023/09/11 07:39:12;;;;;;;16.73;8.68;;;;;;;24.15;73.32;101345.03;5036654;27;97004;-28
2023/09/11 07:41:37;;;;;;;14.82;8.35;;;;;;;24.31;73.08;101353.38;5055201;27;97150;-30
2023/09/11 07:44:03;;;;;;;12.15;7.80;;;;;;;24.38;72.80;101359.06;5053637;27;99295;-27
2023/09/11 07:46:28;;;;;;;21.98;8.80;;;;;;;24.58;72.74;101366.03;5054535;27;99534;-31
2023/09/11 07:48:54;;;;;;;11.68;8.10;;;;;;;24.69;72.51;101356.47;5054838;27;96943;-28
2023/09/11 07:51:19;;;;;;;19.85;8.77;;;;;;;24.79;71.75;101357.19;5054678;27;97031;-27
2023/09/11 07:53:45;;;;;;;17.35;8.45;;;;;;;25.00;71.35;101358.50;5055737;27;97447;-27
2023/09/11 07:56:10;;;;;;;15.43;8.48;;;;;;;25.08;71.18;101347.41;5056184;27;97921;-27
2023/09/11 07:58:37;;;;;;;14.82;7.97;;;;;;;25.23;71.10;101355.88;5056127;27;96612;-28
2023/09/11 08:01:02;;;;;;;15.73;8.00;;;;;;;25.33;70.38;101356.53;5037601;27;96886;-27
2023/09/11 08:03:28;;;;;;;14.70;8.23;;;;;;;25.45;70.24;101357.00;5056158;27;98484;-28
2023/09/11 08:05:54;;;;;;;17.00;8.15;;;;;;;25.54;69.52;101368.94;5056019;27;97923;-27
2023/09/11 08:08:20;;;;;;;13.18;7.80;;;;;;;25.61;69.48;101368.03;5056248;27;96458;-27
2023/09/11 08:10:45;;;;;;;17.48;8.32;;;;;;;25.72;69.37;101375.13;5056681;27;96798;-28
2023/09/11 08:13:11;;;;;;;12.07;7.35;;;;;;;25.82;68.64;101374.88;5055805;27;97360;-28
2023/09/11 08:15:36;;;;;;;15.95;8.63;;;;;;;25.96;68.65;101374.16;5055545;27;99186;-27
2023/09/11 08:18:01;;;;;;;11.70;7.07;;;;;;;26.04;68.40;101368.53;5055624;27;96435;-27
2023/09/11 08:20:27;;;;;;;15.43;7.03;;;;;;;26.18;68.28;101379.91;5056096;27;96790;-27
2023/09/11 08:22:52;;;;;;;16.85;7.35;;;;;;;26.30;67.78;101377.56;5055382;27;99234;-27
2023/09/11 08:25:18;;;;;;;14.27;6.93;;;;;;;26.36;67.71;101374.03;5055189;27;99183;-27
2023/09/11 08:27:43;;;;;;;13.02;7.18;;;;;;;26.46;67.78;101378.31;5054305;27;96748;-27
2023/09/11 08:30:09;;;;;;;11.88;5.70;;;;;;;26.58;66.98;101384.31;5055112;27;96902;-27
2023/09/11 08:32:34;;;;;;;8.00;5.13;;;;;;;26.61;66.78;101375.59;5054798;27;99828;-27
2023/09/11 08:35:00;;;;;;;9.45;4.80;;;;;;;26.65;66.27;101365.84;5036424;27;100901;-27
2023/09/11 08:37:25;;;;;;;8.15;4.28;;;;;;;26.71;65.50;101366.13;5056045;27;96613;-27
2023/09/11 08:39:51;;;;;;;9.10;4.45;;;;;;;26.78;65.20;101367.97;5055565;27;96799;-28
2023/09/11 08:42:17;;;;;;;8.15;3.90;;;;;;;26.89;65.08;101358.31;4993072;27;1196487;-27
2023/09/11 08:44:42;;;;;;;8.43;3.75;;;;;;;26.95;65.06;101359.47;5037965;27;100979;-27
2023/09/11 08:47:09;;;;;;;6.25;3.28;;;;;;;27.06;63.93;101368.22;5056725;27;96422;-27
2023/09/11 08:49:41;;;;;;;6.30;3.72;;;;;;;27.09;64.03;101362.25;5038447;27;96814;-27
2023/09/11 08:52:11;;;;;;;6.07;3.10;;;;;;;27.19;62.89;101366.69;5038027;27;101113;-27
2023/09/11 08:54:41;;;;;;;8.77;3.50;;;;;;;27.33;63.13;101377.84;5035775;27;100900;-27
2023/09/11 08:57:09;;;;;;;7.80;3.15;;;;;;;27.48;62.55;101375.06;5035315;27;96869;-29
2023/09/11 08:59:37;;;;;;;8.27;3.70;;;;;;;27.59;62.52;101379.25;5036020;27;97158;-28
2023/09/11 09:02:04;;;;;;;5.25;2.75;;;;;;;27.50;62.43;101372.94;5035283;27;99709;-31
2023/09/11 09:04:31;;;;;;;7.05;2.92;;;;;;;27.15;62.97;101382.00;5035194;27;100987;-28
2023/09/11 09:06:57;;;;;;;4.45;2.63;;;;;;;26.86;62.46;101372.56;5034927;27;96790;-30
2023/09/11 09:09:22;;;;;;;5.20;2.53;;;;;;;26.74;62.91;101376.88;5036944;27;96870;-28
2023/09/11 09:11:48;;;;;;;5.38;2.53;;;;;;;26.81;62.79;101384.25;5055092;27;97932;-27
2023/09/11 09:14:20;;;;;;;3.00;2.30;;;;;;;26.96;61.29;101375.09;5056068;27;97906;-27
2023/09/11 09:16:46;;;;;;;6.32;2.80;;;;;;;27.14;61.44;101380.28;5056266;27;96530;-27
2023/09/11 09:19:12;;;;;;;6.80;2.90;;;;;;;27.26;61.54;101379.66;5055985;27;96887;-27
2023/09/11 09:22:07;;;;;;;4.63;2.63;;;;;;;27.30;60.27;101372.66;5055996;27;97939;-27
2023/09/11 09:24:37;;;;;;;5.72;2.75;;;;;;;27.53;59.97;101380.91;5037778;27;101150;-28
2023/09/11 09:27:06;;;;;;;4.90;2.50;;;;;;;27.69;60.19;101381.75;5037484;27;96522;-27
2023/09/11 09:29:36;;;;;;;4.22;2.55;;;;;;;27.89;60.16;101384.84;5037596;27;96962;-28
2023/09/11 09:32:03;;;;;;;5.32;2.92;;;;;;;27.99;59.40;101384.50;5036762;27;101070;-28
2023/09/11 09:34:31;;;;;;;4.53;2.70;;;;;;;28.17;59.19;101391.38;5037074;27;101188;-28
2023/09/11 09:36:56;;;;;;;3.65;2.40;;;;;;;28.20;57.26;101387.31;5055992;27;96599;-27
2023/09/11 09:39:24;;;;;;;5.68;2.85;;;;;;;28.22;58.43;101385.22;5055878;27;96854;-27
2023/09/11 09:42:00;;;;;;;5.40;2.50;;;;;;;28.34;57.10;101388.31;5055362;27;98058;-27
2023/09/11 09:44:28;;;;;;;6.43;2.58;;;;;;;28.46;56.74;101394.25;5036950;27;101049;-27
2023/09/11 09:46:53;;;;;;;9.82;2.75;;;;;;;28.51;57.55;101388.97;5055593;27;96607;-28
2023/09/11 09:49:21;;;;;;;6.60;2.30;;;;;;;28.58;57.17;101387.09;5056089;27;96738;-27
2023/09/11 09:51:46;;;;;;;6.30;2.42;;;;;;;28.74;57.38;101384.00;5036975;27;101279;-27
2023/09/11 09:54:12;;;;;;;4.97;2.78;;;;;;;28.80;56.63;101386.00;5055606;27;97776;-27
2023/09/11 09:56:38;;;;;;;6.40;2.55;;;;;;;28.92;56.91;101383.53;5055321;27;97139;-27
2023/09/11 09:59:04;;;;;;;6.90;2.70;;;;;;;29.07;56.46;101379.81;5055736;27;96761;-27
2023/09/11 10:01:29;;;;;;;5.20;2.47;;;;;;;29.23;56.12;101387.00;5055124;27;97445;-28
2023/09/11 10:03:55;;;;;;;4.07;2.67;;;;;;;29.23;55.17;101396.22;5055037;27;99651;-29
2023/09/11 10:06:27;;;;;;;7.18;2.70;;;;;;;29.34;55.62;101398.47;5055514;27;96569;-27
2023/09/11 10:09:06;;;;;;;5.15;2.88;;;;;;;29.40;54.74;101394.81;5055371;27;96546;-28
2023/09/11 10:11:32;;;;;;;4.68;2.58;;;;;;;29.42;54.85;101392.69;5036752;27;100951;-27
2023/09/11 10:13:59;;;;;;;4.68;2.55;;;;;;;29.48;54.95;101392.94;5036870;27;100764;-27
2023/09/11 10:16:26;;;;;;;6.43;2.63;;;;;;;29.50;54.28;101388.00;5037129;27;96703;-27
2023/09/11 10:18:53;;;;;;;4.85;2.40;;;;;;;29.61;54.13;101387.44;5037030;27;97014;-27
2023/09/11 10:21:19;;;;;;;7.70;2.72;;;;;;;29.65;53.98;101385.94;5036104;27;100909;-27
2023/09/11 10:23:46;;;;;;;6.30;2.55;;;;;;;29.66;53.41;101393.25;5054666;27;99496;-28
2023/09/11 10:26:16;;;;;;;3.90;2.45;;;;;;;29.67;53.19;101380.19;5036680;27;96893;-27
2023/09/11 10:28:45;;;;;;;3.72;2.47;;;;;;;29.78;53.73;101380.44;5036786;27;96731;-27
2023/09/11 10:31:23;;;;;;;5.78;3.05;;;;;;;29.91;53.48;101385.22;5036235;27;103666;-27
2023/09/11 10:33:56;;;;;;;5.90;2.72;;;;;;;30.01;52.75;101391.28;5036322;27;100767;-27
2023/09/11 10:36:24;;;;;;;11.90;3.28;;;;;;;30.14;53.33;101384.88;5036731;27;96653;-27
2023/09/11 10:38:56;;;;;;;6.78;3.30;;;;;;;30.23;53.09;101386.41;5037058;27;96832;-27
2023/09/11 10:41:22;;;;;;;9.82;3.08;;;;;;;30.32;53.33;101386.22;5036014;27;101034;-27
2023/09/11 10:43:48;;;;;;;7.60;3.60;;;;;;;30.38;53.08;101386.22;5035491;27;100759;-27
2023/09/11 10:46:22;;;;;;;7.88;3.10;;;;;;;30.38;52.87;101389.03;5036089;27;96597;-27
2023/09/11 10:48:50;;;;;;;4.57;2.72;;;;;;;30.33;52.68;101388.81;5055077;27;96915;-28
2023/09/11 10:51:16;;;;;;;8.38;2.92;;;;;;;30.31;52.90;101388.16;5035808;27;98904;-27
2023/09/11 10:53:42;;;;;;;7.30;3.70;;;;;;;30.30;52.92;101378.06;5054621;27;97743;-28
2023/09/11 10:56:08;;;;;;;11.80;4.03;;;;;;;30.35;53.16;101378.28;5035963;27;97432;-27
2023/09/11 10:58:34;;;;;;;8.65;3.53;;;;;;;30.34;52.77;101376.53;5054914;27;96755;-28
2023/09/11 11:01:03;;;;;;;8.63;3.30;;;;;;;30.41;52.34;101382.16;5036096;27;101219;-27
2023/09/11 11:03:29;;;;;;;7.70;3.50;;;;;;;30.44;52.18;101385.41;5036420;27;101011;-27
2023/09/11 11:05:58;;;;;;;9.80;4.05;;;;;;;30.44;51.74;101392.94;5036335;27;96669;-28
2023/09/11 11:08:23;;;;;;;7.10;3.70;;;;;;;30.43;52.89;101383.66;5036139;27;96817;-28
2023/09/11 11:10:56;;;;;;;9.18;3.45;;;;;;;30.51;52.02;101391.00;5053921;27;98019;-27
2023/09/11 11:13:21;;;;;;;8.68;3.45;;;;;;;30.55;52.84;101397.00;5035579;27;101033;-27
2023/09/11 11:15:47;;;;;;;10.30;4.13;;;;;;;30.58;52.71;101391.00;5052199;27;96665;-27
2023/09/11 11:18:23;;;;;;;7.28;4.15;;;;;;;30.46;52.74;101399.13;5052304;27;96977;-32
2023/09/11 11:21:03;;;;;;;7.97;3.97;;;;;;;30.40;52.42;101402.81;5033439;27;101062;-28